createdAt,value
2022-10-25T00:02:16.293Z,5.82
2022-10-25T00:06:19.597Z,6.40
2022-10-25T00:10:24.947Z,3.42
2022-10-25T00:14:28.930Z,3.00
2022-10-25T00:18:33.186Z,1.92
2022-10-25T00:22:36.208Z,2.40
2022-10-25T00:26:41.251Z,4.78
2022-10-25T00:30:44.441Z,5.10
2022-10-25T00:34:48.959Z,5.05
2022-10-25T00:38:52.286Z,4.40
2022-10-25T00:42:55.177Z,4.55
2022-10-25T00:46:58.134Z,4.50
2022-10-25T00:51:03.785Z,5.68
2022-10-25T00:55:09.492Z,6.85
2022-10-25T00:59:17.890Z,5.65
2022-10-25T01:03:24.018Z,5.53
2022-10-25T01:07:28.527Z,6.35
2022-10-25T01:11:31.483Z,6.25
2022-10-25T01:15:42.349Z,5.75
2022-10-25T01:20:23.200Z,5.40
2022-10-25T01:24:59.143Z,8.50
2022-10-25T01:29:29.928Z,7.65
2022-10-25T01:33:37.915Z,6.97
2022-10-25T01:37:48.919Z,5.80
2022-10-25T01:42:00.586Z,6.82
2022-10-25T01:46:13.366Z,5.75
2022-10-25T01:50:23.069Z,5.97
2022-10-25T01:54:27.204Z,6.47
2022-10-25T01:58:39.575Z,6.22
2022-10-25T02:02:59.131Z,6.13
2022-10-25T02:07:08.827Z,5.47
2022-10-25T02:11:22.693Z,5.18
2022-10-25T02:15:33.278Z,4.53
2022-10-25T02:19:41.689Z,5.43
2022-10-25T02:23:48.581Z,4.50
2022-10-25T02:27:53.772Z,4.32
2022-10-25T02:31:56.958Z,3.13
2022-10-25T02:36:06.995Z,3.20
2022-10-25T02:40:13.014Z,3.70
2022-10-25T02:44:16.197Z,4.32
2022-10-25T02:48:19.075Z,1.85
2022-10-25T02:52:22.003Z,3.63
2022-10-25T02:56:26.615Z,1.42
2022-10-25T03:00:29.920Z,1.45
2022-10-25T03:04:32.899Z,1.38
2022-10-25T03:08:36.404Z,1.58
2022-10-25T03:12:40.704Z,2.22
2022-10-25T03:16:43.687Z,1.73
2022-10-25T03:20:46.675Z,2.53
2022-10-25T03:24:49.568Z,2.17
2022-10-25T03:28:53.859Z,1.77
2022-10-25T03:32:57.562Z,2.33
2022-10-25T03:37:00.483Z,2.70
2022-10-25T03:41:03.574Z,2.58
2022-10-25T03:45:08.811Z,3.63
2022-10-25T03:49:11.745Z,4.07
2022-10-25T03:53:15.944Z,3.20
2022-10-25T03:57:19.073Z,4.50
2022-10-25T04:01:23.534Z,5.00
2022-10-25T04:05:26.613Z,5.13
2022-10-25T04:09:29.575Z,4.72
2022-10-25T04:13:32.465Z,4.13
2022-10-25T04:17:36.785Z,5.72
2022-10-25T04:21:39.669Z,5.03
2022-10-25T04:25:42.573Z,3.60
2022-10-25T04:29:45.528Z,3.70
2022-10-25T04:33:51.453Z,3.67
2022-10-25T04:37:58.139Z,3.22
2022-10-25T04:42:01.068Z,4.05
2022-10-25T04:46:04.273Z,3.78
2022-10-25T04:50:09.305Z,4.85
2022-10-25T04:54:12.961Z,4.85
2022-10-25T04:58:15.854Z,3.67
2022-10-25T05:02:18.740Z,2.53
2022-10-25T05:06:25.439Z,3.20
2022-10-25T05:10:28.440Z,3.00
2022-10-25T05:14:31.324Z,4.22
2022-10-25T05:18:35.680Z,3.53
2022-10-25T05:22:40.041Z,3.28
2022-10-25T05:26:43.084Z,3.70
2022-10-25T05:30:46.291Z,3.80
2022-10-25T05:34:49.350Z,4.05
2022-10-25T05:38:54.444Z,6.75
2022-10-25T05:42:57.616Z,3.45
2022-10-25T05:47:00.611Z,4.38
2022-10-25T05:51:32.353Z,3.75
2022-10-25T05:55:38.435Z,3.83
2022-10-25T05:59:41.404Z,6.25
2022-10-25T06:03:44.969Z,3.58
2022-10-25T06:07:48.402Z,4.45
2022-10-25T06:11:52.971Z,5.65
2022-10-25T06:15:56.129Z,3.92
2022-10-25T06:19:59.168Z,3.97
2022-10-25T06:24:02.403Z,3.58
2022-10-25T06:28:09.301Z,3.78
2022-10-25T06:32:12.414Z,5.82
2022-10-25T06:36:17.356Z,4.60
2022-10-25T06:44:29.793Z,5.82
2022-10-25T06:48:33.090Z,7.43
2022-10-25T06:52:36.086Z,3.42
2022-10-25T06:56:39.103Z,3.58
2022-10-25T07:00:46.017Z,4.07
2022-10-25T07:04:52.193Z,4.70
2022-10-25T07:08:56.875Z,4.28
2022-10-25T07:13:00.084Z,4.07
2022-10-25T07:17:04.547Z,4.88
2022-10-25T07:21:09.561Z,4.32
2022-10-25T07:25:12.617Z,2.40
2022-10-25T07:29:15.722Z,2.67
2022-10-25T07:33:21.373Z,2.53
2022-10-25T07:37:24.569Z,3.95
2022-10-25T07:41:27.774Z,2.42
2022-10-25T07:45:31.331Z,3.70
2022-10-25T07:49:36.708Z,2.80
2022-10-25T07:53:39.910Z,2.70
2022-10-25T07:57:43.279Z,1.98
2022-10-25T08:01:46.342Z,2.53
2022-10-25T08:05:50.823Z,2.85
2022-10-25T08:09:53.850Z,3.70
2022-10-25T08:13:56.854Z,1.60
2022-10-25T08:18:00.276Z,2.17
2022-10-25T08:26:36.578Z,1.05
2022-10-25T08:30:41.305Z,1.50
2022-10-25T08:34:44.352Z,1.55
2022-10-25T08:38:48.283Z,3.90
2022-10-25T08:43:01.771Z,0.80
2022-10-25T08:47:11.881Z,1.75
2022-10-25T08:51:25.309Z,0.80
2022-10-25T08:55:34.036Z,0.93
2022-10-25T08:59:42.061Z,0.82
2022-10-25T09:03:45.181Z,0.40
2022-10-25T09:08:16.507Z,1.10
2022-10-25T09:12:30.540Z,0.60
2022-10-25T09:16:43.492Z,0.57
2022-10-25T09:20:51.123Z,0.50
2022-10-25T09:24:59.844Z,1.17
2022-10-25T09:29:08.537Z,2.33
2022-10-25T09:33:17.937Z,1.70
2022-10-25T09:37:27.903Z,0.75
2022-10-25T09:41:36.565Z,1.10
2022-10-25T09:45:49.448Z,0.90
2022-10-25T09:50:00.162Z,1.98
2022-10-25T09:54:12.556Z,1.00
2022-10-25T09:58:20.998Z,0.82
2022-10-25T10:02:26.186Z,0.98
2022-10-25T10:06:37.461Z,1.40
2022-10-25T10:10:42.016Z,0.50
2022-10-25T10:14:52.774Z,0.50
2022-10-25T10:19:16.097Z,0.50
2022-10-25T10:23:20.535Z,1.92
2022-10-25T10:27:27.924Z,0.95
2022-10-25T10:31:36.277Z,0.70
2022-10-25T10:35:39.632Z,0.55
2022-10-25T10:39:52.282Z,0.50
2022-10-25T10:44:11.625Z,1.85
2022-10-25T10:48:21.080Z,0.52
2022-10-25T10:52:31.541Z,0.77
2022-10-25T10:56:36.014Z,0.60
2022-10-25T11:00:39.227Z,0.60
2022-10-25T11:04:49.932Z,0.65
2022-10-25T11:09:15.738Z,0.40
2022-10-25T11:13:22.002Z,0.63
2022-10-25T11:17:30.768Z,1.27
2022-10-25T11:21:50.041Z,0.43
2022-10-25T11:26:00.300Z,0.47
2022-10-25T11:30:17.372Z,0.70
2022-10-25T11:34:32.149Z,0.40
2022-10-25T11:38:49.607Z,1.58
2022-10-25T11:43:02.534Z,0.45
2022-10-25T11:47:15.850Z,0.50
2022-10-25T11:51:29.561Z,0.40
2022-10-25T11:55:40.519Z,0.60
2022-10-25T11:59:57.307Z,0.30
2022-10-25T12:04:16.501Z,0.40
2022-10-25T12:08:31.058Z,1.23
2022-10-25T12:12:44.207Z,0.50
2022-10-25T12:16:48.455Z,1.00
2022-10-25T12:20:55.202Z,3.92
2022-10-25T12:25:02.337Z,0.38
2022-10-25T12:29:07.361Z,0.95
2022-10-25T12:33:21.599Z,3.03
2022-10-25T12:37:35.865Z,0.85
2022-10-25T12:41:41.324Z,1.75
2022-10-25T12:45:59.653Z,0.77
2022-10-25T12:50:24.509Z,1.08
2022-10-25T12:54:52.813Z,0.88
2022-10-25T12:59:07.586Z,2.08
2022-10-25T13:03:49.438Z,0.68
2022-10-25T13:07:55.776Z,1.08
2022-10-25T13:12:02.635Z,2.25
2022-10-25T13:16:07.932Z,1.95
2022-10-25T13:20:47.223Z,0.43
2022-10-25T13:24:50.295Z,1.88
2022-10-25T13:28:57.395Z,0.57
2022-10-25T13:33:29.581Z,0.63
2022-10-25T13:37:43.819Z,2.67
2022-10-25T13:41:47.213Z,2.92
2022-10-25T13:45:56.063Z,0.63
2022-10-25T13:49:59.883Z,2.47
2022-10-25T13:54:08.416Z,0.65
2022-10-25T13:58:41.756Z,1.98
2022-10-25T14:03:20.202Z,0.50
2022-10-25T14:07:49.399Z,1.88
2022-10-25T14:11:55.319Z,0.40
2022-10-25T14:16:01.839Z,0.47
2022-10-25T14:24:21.419Z,0.47
2022-10-25T14:28:26.818Z,1.50
2022-10-25T14:32:33.136Z,0.95
2022-10-25T14:36:38.369Z,0.77
2022-10-25T14:40:41.418Z,1.00
2022-10-25T14:44:48.240Z,0.98
2022-10-25T14:48:55.784Z,1.95
2022-10-25T14:53:01.231Z,0.40
2022-10-25T14:57:07.195Z,0.55
2022-10-25T15:01:12.345Z,0.50
2022-10-25T15:05:19.815Z,1.45
2022-10-25T15:13:49.792Z,0.52
2022-10-25T15:17:53.658Z,1.45
2022-10-25T15:22:10.243Z,0.70
2022-10-25T15:26:29.165Z,1.98
2022-10-25T15:30:36.856Z,1.83
2022-10-25T15:34:40.197Z,0.73
2022-10-25T15:39:06.289Z,1.13
2022-10-25T15:43:08.119Z,2.90
2022-10-25T15:47:23.731Z,0.82
2022-10-25T15:51:30.193Z,1.88
2022-10-25T15:55:34.455Z,1.67
2022-10-25T15:59:38.866Z,1.08
2022-10-25T16:03:41.897Z,1.08
2022-10-25T16:07:44.958Z,1.65
2022-10-25T16:11:54.160Z,0.50
2022-10-25T16:16:04.377Z,0.60
2022-10-25T16:20:17.160Z,1.35
2022-10-25T16:24:20.385Z,1.17
2022-10-25T16:32:33.209Z,0.60
2022-10-25T16:36:36.286Z,0.88
2022-10-25T16:40:39.419Z,1.27
2022-10-25T16:44:42.455Z,1.15
2022-10-25T16:48:46.926Z,0.50
2022-10-25T16:52:50.209Z,1.33
2022-10-25T16:56:53.406Z,1.67
2022-10-25T17:00:59.469Z,2.70
2022-10-25T17:05:03.887Z,1.25
2022-10-25T17:09:06.930Z,1.13
2022-10-25T17:13:15.617Z,0.95
2022-10-25T17:17:18.730Z,1.23
2022-10-25T17:21:23.605Z,1.40
2022-10-25T17:25:26.619Z,1.13
2022-10-25T17:29:29.601Z,1.42
2022-10-25T17:33:32.884Z,2.42
2022-10-25T17:37:39.283Z,1.45
2022-10-25T17:41:42.591Z,0.65
2022-10-25T17:45:45.695Z,1.75
2022-10-25T17:49:49.094Z,0.90
2022-10-25T17:53:55.197Z,1.13
2022-10-25T17:57:58.408Z,1.40
2022-10-25T18:02:01.767Z,1.52
2022-10-25T18:06:08.011Z,1.85
2022-10-25T18:10:12.743Z,1.73
2022-10-25T18:14:15.789Z,1.33
2022-10-25T18:18:19.393Z,1.80
2022-10-25T18:22:22.598Z,2.67
2022-10-25T18:26:29.299Z,2.80
2022-10-25T18:30:33.971Z,1.25
2022-10-25T18:34:37.017Z,2.15
2022-10-25T18:38:40.055Z,3.85
2022-10-25T18:42:44.412Z,2.60
2022-10-25T18:46:47.875Z,3.17
2022-10-25T18:50:50.918Z,1.33
2022-10-25T18:54:54.561Z,2.17
2022-10-25T18:58:59.714Z,3.85
2022-10-25T19:03:02.726Z,2.72
2022-10-25T19:07:05.759Z,2.28
2022-10-25T19:11:12.144Z,4.75
2022-10-25T19:15:16.765Z,3.15
2022-10-25T19:19:19.734Z,3.83
2022-10-25T19:23:22.883Z,3.78
2022-10-25T19:27:26.171Z,2.63
2022-10-25T19:31:30.644Z,2.38
2022-10-25T19:35:33.830Z,2.92
2022-10-25T19:39:37.900Z,3.80
2022-10-25T19:43:41.092Z,3.40
2022-10-25T19:47:46.104Z,3.72
2022-10-25T19:51:49.257Z,4.43
2022-10-25T19:56:01.335Z,2.72
2022-10-25T20:00:06.693Z,4.30
2022-10-25T20:04:13.354Z,4.65
2022-10-25T20:08:16.737Z,5.95
2022-10-25T20:12:19.733Z,6.90
2022-10-25T20:16:23.004Z,5.47
2022-10-25T20:20:27.535Z,4.68
2022-10-25T20:24:30.745Z,3.03
2022-10-25T20:28:33.736Z,3.75
2022-10-25T20:32:36.706Z,4.63
2022-10-25T20:36:41.201Z,3.95
2022-10-25T20:40:45.286Z,4.80
2022-10-25T20:44:48.317Z,5.30
2022-10-25T20:48:51.470Z,4.10
2022-10-25T20:53:09.907Z,5.43
2022-10-25T20:57:13.713Z,5.07
2022-10-25T21:01:17.341Z,4.78
2022-10-25T21:05:20.473Z,6.65
2022-10-25T21:09:25.345Z,6.45
2022-10-25T21:13:31.992Z,6.65
2022-10-25T21:17:35.485Z,7.43
2022-10-25T21:21:38.675Z,6.63
2022-10-25T21:25:43.129Z,4.85
2022-10-25T21:29:46.306Z,8.07
2022-10-25T21:33:51.831Z,4.45
2022-10-25T21:37:56.846Z,4.82
2022-10-25T21:42:01.237Z,5.53
2022-10-25T21:46:08.182Z,4.15
2022-10-25T21:50:11.611Z,4.43
2022-10-25T21:54:14.608Z,6.13
2022-10-25T21:58:18.990Z,4.15
2022-10-25T22:02:22.387Z,4.63
2022-10-25T22:06:27.393Z,6.95
2022-10-25T22:10:30.388Z,6.28
2022-10-25T22:14:34.899Z,6.93
2022-10-25T22:18:38.487Z,6.88
2022-10-25T22:22:41.524Z,8.63
2022-10-25T22:26:46.458Z,11.10
2022-10-25T22:30:57.527Z,11.18
2022-10-25T22:35:00.536Z,9.32
2022-10-25T22:39:04.255Z,7.63
2022-10-25T22:43:07.372Z,6.10
2022-10-25T22:47:11.754Z,5.35
2022-10-25T22:51:14.827Z,5.72
2022-10-25T22:55:17.889Z,5.32
2022-10-25T22:59:20.930Z,5.57
2022-10-25T23:03:25.587Z,10.85
2022-10-25T23:07:28.584Z,5.38
2022-10-25T23:11:34.333Z,5.07
2022-10-25T23:15:37.361Z,5.85
2022-10-25T23:19:41.732Z,5.00
2022-10-25T23:23:45.429Z,5.28
2022-10-25T23:27:48.785Z,5.40
2022-10-25T23:31:52.513Z,4.47
2022-10-25T23:36:02.617Z,4.65
2022-10-25T23:40:06.375Z,6.47
2022-10-25T23:44:09.384Z,3.83
2022-10-25T23:48:12.388Z,3.95
2022-10-25T23:52:16.931Z,3.90
2022-10-25T23:56:19.993Z,5.22
